Terminal Aerodrome Forecast
Issued by NWS Duluth, MN

Home | Current Version | Previous Version | Text Only | Print | Product List | Glossary On
Versions: 1 2 3 4 5 6 7 8 9 10 11 12 13 14 15 16 17 18 19 20
000
FTUS43 KDLH 232300 RRA
TAFINL
TAF
KINL 232356Z 2400/2424 22013G25KT P6SM OVC080 WS020/24040KT
     FM240100 22013G25KT 5SM -SN BKN040 OVC080 WS020/24040KT
      TEMPO 2401/2405 1 1/2SM -SN BKN025
     FM240700 28011KT 5SM -SN BKN025 OVC030
     FM241100 32013G24KT 6SM -SHSN BKN025
     FM241600 31015G25KT P6SM VCSH SCT025 BKN050
     FM242300 31011KT P6SM SCT025 BKN080=

USA.gov is the U.S. government's official web portal to all federal, state and local government web resources and services.